sensor_id;sensor_type;location;lat;lon;timestamp;P1;durP1;ratioP1;P2;durP2;ratioP2
10260;SDS011;5175;42.606;23.388;2023-06-14T00:02:17;15.65;;;13.95;;
10260;SDS011;5175;42.606;23.388;2023-06-14T00:04:44;13.35;;;11.95;;
10260;SDS011;5175;42.606;23.388;2023-06-14T00:07:13;14.23;;;12.60;;
10260;SDS011;5175;42.606;23.388;2023-06-14T00:09:41;13.18;;;11.93;;
10260;SDS011;5175;42.606;23.388;2023-06-14T00:12:10;13.70;;;12.32;;
10260;SDS011;5175;42.606;23.388;2023-06-14T00:14:38;14.05;;;12.55;;
10260;SDS011;5175;42.606;23.388;2023-06-14T00:17:05;14.20;;;12.83;;
10260;SDS011;5175;42.606;23.388;2023-06-14T00:19:32;13.75;;;12.35;;
10260;SDS011;5175;42.606;23.388;2023-06-14T00:22:00;14.70;;;13.30;;
10260;SDS011;5175;42.606;23.388;2023-06-14T00:24:28;17.27;;;13.13;;
10260;SDS011;5175;42.606;23.388;2023-06-14T00:26:55;15.00;;;13.38;;
10260;SDS011;5175;42.606;23.388;2023-06-14T00:29:23;13.93;;;12.63;;
10260;SDS011;5175;42.606;23.388;2023-06-14T00:31:50;14.30;;;12.90;;
10260;SDS011;5175;42.606;23.388;2023-06-14T00:34:17;14.85;;;13.23;;
10260;SDS011;5175;42.606;23.388;2023-06-14T00:36:44;15.30;;;13.70;;
10260;SDS011;5175;42.606;23.388;2023-06-14T00:39:10;15.27;;;13.55;;
10260;SDS011;5175;42.606;23.388;2023-06-14T00:41:37;16.85;;;14.35;;
10260;SDS011;5175;42.606;23.388;2023-06-14T00:44:06;15.90;;;13.88;;
10260;SDS011;5175;42.606;23.388;2023-06-14T00:46:34;15.93;;;14.27;;
10260;SDS011;5175;42.606;23.388;2023-06-14T00:49:03;14.83;;;13.33;;
10260;SDS011;5175;42.606;23.388;2023-06-14T00:51:31;15.10;;;11.90;;
10260;SDS011;5175;42.606;23.388;2023-06-14T00:53:58;12.53;;;10.47;;
10260;SDS011;5175;42.606;23.388;2023-06-14T00:56:25;11.30;;;10.20;;
10260;SDS011;5175;42.606;23.388;2023-06-14T00:58:55;11.70;;;10.30;;
10260;SDS011;5175;42.606;23.388;2023-06-14T01:01:22;12.23;;;10.95;;
10260;SDS011;5175;42.606;23.388;2023-06-14T01:03:51;12.52;;;11.32;;
10260;SDS011;5175;42.606;23.388;2023-06-14T01:06:19;12.43;;;11.10;;
10260;SDS011;5175;42.606;23.388;2023-06-14T01:08:57;12.53;;;11.33;;
10260;SDS011;5175;42.606;23.388;2023-06-14T01:11:35;12.50;;;11.30;;
10260;SDS011;5175;42.606;23.388;2023-06-14T01:14:07;12.40;;;11.20;;
10260;SDS011;5175;42.606;23.388;2023-06-14T01:16:37;15.80;;;12.10;;
10260;SDS011;5175;42.606;23.388;2023-06-14T01:19:07;13.68;;;12.27;;
10260;SDS011;5175;42.606;23.388;2023-06-14T01:21:38;14.40;;;12.57;;
10260;SDS011;5175;42.606;23.388;2023-06-14T01:24:08;16.13;;;12.57;;
10260;SDS011;5175;42.606;23.388;2023-06-14T01:26:36;13.98;;;12.45;;
10260;SDS011;5175;42.606;23.388;2023-06-14T01:29:10;14.13;;;12.60;;
10260;SDS011;5175;42.606;23.388;2023-06-14T01:31:42;15.75;;;12.35;;
10260;SDS011;5175;42.606;23.388;2023-06-14T01:34:10;14.00;;;12.55;;
10260;SDS011;5175;42.606;23.388;2023-06-14T01:36:37;13.23;;;11.65;;
10260;SDS011;5175;42.606;23.388;2023-06-14T01:39:11;13.90;;;12.50;;
10260;SDS011;5175;42.606;23.388;2023-06-14T01:41:40;14.27;;;12.15;;
10260;SDS011;5175;42.606;23.388;2023-06-14T01:44:07;14.33;;;12.93;;
10260;SDS011;5175;42.606;23.388;2023-06-14T01:46:34;13.20;;;11.97;;
10260;SDS011;5175;42.606;23.388;2023-06-14T01:49:02;13.85;;;12.55;;
10260;SDS011;5175;42.606;23.388;2023-06-14T01:51:29;15.38;;;11.63;;
10260;SDS011;5175;42.606;23.388;2023-06-14T01:53:55;13.80;;;12.43;;
10260;SDS011;5175;42.606;23.388;2023-06-14T01:56:29;12.88;;;11.55;;
10260;SDS011;5175;42.606;23.388;2023-06-14T01:59:00;13.90;;;12.50;;
10260;SDS011;5175;42.606;23.388;2023-06-14T02:01:26;14.85;;;11.85;;
10260;SDS011;5175;42.606;23.388;2023-06-14T02:03:53;14.77;;;12.55;;
10260;SDS011;5175;42.606;23.388;2023-06-14T02:06:20;13.40;;;12.18;;
10260;SDS011;5175;42.606;23.388;2023-06-14T02:08:47;13.50;;;12.07;;
10260;SDS011;5175;42.606;23.388;2023-06-14T02:11:13;13.07;;;11.87;;
10260;SDS011;5175;42.606;23.388;2023-06-14T02:13:42;13.32;;;11.50;;
10260;SDS011;5175;42.606;23.388;2023-06-14T02:16:09;12.85;;;11.55;;
10260;SDS011;5175;42.606;23.388;2023-06-14T02:18:36;12.80;;;11.40;;
10260;SDS011;5175;42.606;23.388;2023-06-14T02:21:03;12.00;;;10.80;;
10260;SDS011;5175;42.606;23.388;2023-06-14T02:23:30;12.30;;;11.00;;
10260;SDS011;5175;42.606;23.388;2023-06-14T02:25:57;11.60;;;10.40;;
10260;SDS011;5175;42.606;23.388;2023-06-14T02:28:24;12.77;;;11.20;;
10260;SDS011;5175;42.606;23.388;2023-06-14T02:30:52;11.77;;;10.57;;
10260;SDS011;5175;42.606;23.388;2023-06-14T02:33:18;14.00;;;10.35;;
10260;SDS011;5175;42.606;23.388;2023-06-14T02:35:47;12.65;;;10.80;;
10260;SDS011;5175;42.606;23.388;2023-06-14T02:38:13;13.00;;;10.93;;
10260;SDS011;5175;42.606;23.388;2023-06-14T02:40:40;12.48;;;11.27;;
10260;SDS011;5175;42.606;23.388;2023-06-14T02:43:08;12.27;;;10.13;;
10260;SDS011;5175;42.606;23.388;2023-06-14T02:45:34;12.35;;;10.15;;
10260;SDS011;5175;42.606;23.388;2023-06-14T02:48:03;11.33;;;10.23;;
10260;SDS011;5175;42.606;23.388;2023-06-14T02:50:30;12.20;;;11.00;;
10260;SDS011;5175;42.606;23.388;2023-06-14T02:52:57;12.15;;;10.95;;
10260;SDS011;5175;42.606;23.388;2023-06-14T02:55:24;12.32;;;10.55;;
10260;SDS011;5175;42.606;23.388;2023-06-14T02:57:51;12.35;;;11.15;;
10260;SDS011;5175;42.606;23.388;2023-06-14T03:00:18;12.35;;;10.50;;
10260;SDS011;5175;42.606;23.388;2023-06-14T03:02:45;12.03;;;10.83;;
10260;SDS011;5175;42.606;23.388;2023-06-14T03:05:14;13.90;;;11.35;;
10260;SDS011;5175;42.606;23.388;2023-06-14T03:07:41;11.93;;;10.82;;
10260;SDS011;5175;42.606;23.388;2023-06-14T03:10:10;11.48;;;10.38;;
10260;SDS011;5175;42.606;23.388;2023-06-14T03:12:38;11.60;;;10.35;;
10260;SDS011;5175;42.606;23.388;2023-06-14T03:15:05;12.05;;;10.35;;
10260;SDS011;5175;42.606;23.388;2023-06-14T03:17:34;11.57;;;10.48;;
10260;SDS011;5175;42.606;23.388;2023-06-14T03:20:04;13.70;;;10.18;;
10260;SDS011;5175;42.606;23.388;2023-06-14T03:22:34;11.88;;;10.55;;
10260;SDS011;5175;42.606;23.388;2023-06-14T03:25:01;11.20;;;9.73;;
10260;SDS011;5175;42.606;23.388;2023-06-14T03:27:29;10.82;;;9.60;;
10260;SDS011;5175;42.606;23.388;2023-06-14T03:29:56;10.10;;;9.10;;
10260;SDS011;5175;42.606;23.388;2023-06-14T03:32:22;10.65;;;9.52;;
10260;SDS011;5175;42.606;23.388;2023-06-14T03:34:49;11.10;;;9.63;;
10260;SDS011;5175;42.606;23.388;2023-06-14T03:37:17;10.63;;;9.60;;
10260;SDS011;5175;42.606;23.388;2023-06-14T03:39:45;11.15;;;9.38;;
10260;SDS011;5175;42.606;23.388;2023-06-14T03:42:13;10.13;;;9.10;;
10260;SDS011;5175;42.606;23.388;2023-06-14T03:44:39;11.07;;;8.82;;
10260;SDS011;5175;42.606;23.388;2023-06-14T03:47:06;9.68;;;8.70;;
10260;SDS011;5175;42.606;23.388;2023-06-14T03:49:34;10.90;;;8.13;;
10260;SDS011;5175;42.606;23.388;2023-06-14T03:52:03;10.43;;;9.15;;
10260;SDS011;5175;42.606;23.388;2023-06-14T03:54:32;11.38;;;8.40;;
10260;SDS011;5175;42.606;23.388;2023-06-14T03:57:01;10.75;;;8.77;;
10260;SDS011;5175;42.606;23.388;2023-06-14T03:59:29;9.82;;;8.13;;
10260;SDS011;5175;42.606;23.388;2023-06-14T04:01:55;9.60;;;8.07;;
10260;SDS011;5175;42.606;23.388;2023-06-14T04:04:22;8.98;;;8.15;;
10260;SDS011;5175;42.606;23.388;2023-06-14T04:06:53;9.88;;;8.05;;
10260;SDS011;5175;42.606;23.388;2023-06-14T04:09:21;8.52;;;7.72;;
10260;SDS011;5175;42.606;23.388;2023-06-14T04:11:50;9.23;;;8.32;;
10260;SDS011;5175;42.606;23.388;2023-06-14T04:14:19;9.23;;;8.15;;
10260;SDS011;5175;42.606;23.388;2023-06-14T04:16:46;9.50;;;8.65;;
10260;SDS011;5175;42.606;23.388;2023-06-14T04:19:12;9.52;;;7.90;;
10260;SDS011;5175;42.606;23.388;2023-06-14T04:21:39;9.82;;;8.82;;
10260;SDS011;5175;42.606;23.388;2023-06-14T04:24:06;9.77;;;8.80;;
10260;SDS011;5175;42.606;23.388;2023-06-14T04:26:39;9.60;;;8.68;;
10260;SDS011;5175;42.606;23.388;2023-06-14T04:29:06;10.57;;;9.48;;
10260;SDS011;5175;42.606;23.388;2023-06-14T04:31:34;10.68;;;9.45;;
10260;SDS011;5175;42.606;23.388;2023-06-14T04:34:02;11.80;;;9.10;;
10260;SDS011;5175;42.606;23.388;2023-06-14T04:36:30;10.27;;;9.38;;
10260;SDS011;5175;42.606;23.388;2023-06-14T04:38:59;11.63;;;9.82;;
10260;SDS011;5175;42.606;23.388;2023-06-14T04:41:28;10.25;;;9.35;;
10260;SDS011;5175;42.606;23.388;2023-06-14T04:43:55;10.02;;;9.13;;
10260;SDS011;5175;42.606;23.388;2023-06-14T04:46:26;11.57;;;9.30;;
10260;SDS011;5175;42.606;23.388;2023-06-14T04:48:54;9.88;;;8.95;;
10260;SDS011;5175;42.606;23.388;2023-06-14T05:09:37;13.85;;;11.90;;
10260;SDS011;5175;42.606;23.388;2023-06-14T05:12:04;12.60;;;11.25;;
10260;SDS011;5175;42.606;23.388;2023-06-14T05:14:33;11.98;;;10.65;;
10260;SDS011;5175;42.606;23.388;2023-06-14T05:17:00;13.45;;;12.13;;
10260;SDS011;5175;42.606;23.388;2023-06-14T05:19:27;11.60;;;10.55;;
10260;SDS011;5175;42.606;23.388;2023-06-14T05:21:54;12.63;;;10.88;;
10260;SDS011;5175;42.606;23.388;2023-06-14T05:24:21;10.70;;;9.60;;
10260;SDS011;5175;42.606;23.388;2023-06-14T05:26:49;11.52;;;10.35;;
10260;SDS011;5175;42.606;23.388;2023-06-14T05:29:15;11.32;;;10.32;;
10260;SDS011;5175;42.606;23.388;2023-06-14T05:31:42;11.63;;;10.38;;
10260;SDS011;5175;42.606;23.388;2023-06-14T05:34:09;12.02;;;10.85;;
10260;SDS011;5175;42.606;23.388;2023-06-14T05:36:36;12.75;;;11.55;;
10260;SDS011;5175;42.606;23.388;2023-06-14T05:39:03;14.38;;;12.95;;
10260;SDS011;5175;42.606;23.388;2023-06-14T05:41:30;13.40;;;12.10;;
10260;SDS011;5175;42.606;23.388;2023-06-14T05:43:59;15.10;;;12.50;;
10260;SDS011;5175;42.606;23.388;2023-06-14T05:46:26;13.68;;;12.38;;
10260;SDS011;5175;42.606;23.388;2023-06-14T05:48:53;13.38;;;11.98;;
10260;SDS011;5175;42.606;23.388;2023-06-14T05:51:21;14.25;;;12.85;;
10260;SDS011;5175;42.606;23.388;2023-06-14T05:53:50;14.77;;;12.98;;
10260;SDS011;5175;42.606;23.388;2023-06-14T05:56:17;16.75;;;13.55;;
10260;SDS011;5175;42.606;23.388;2023-06-14T05:58:44;15.20;;;13.70;;
10260;SDS011;5175;42.606;23.388;2023-06-14T06:01:13;14.85;;;13.35;;
10260;SDS011;5175;42.606;23.388;2023-06-14T06:03:40;15.98;;;13.82;;
10260;SDS011;5175;42.606;23.388;2023-06-14T06:06:11;18.58;;;14.50;;
10260;SDS011;5175;42.606;23.388;2023-06-14T06:08:38;15.93;;;14.45;;
10260;SDS011;5175;42.606;23.388;2023-06-14T06:11:05;16.58;;;14.73;;
10260;SDS011;5175;42.606;23.388;2023-06-14T06:13:32;18.15;;;16.23;;
10260;SDS011;5175;42.606;23.388;2023-06-14T06:16:00;18.35;;;16.45;;
10260;SDS011;5175;42.606;23.388;2023-06-14T06:18:28;18.73;;;16.42;;
10260;SDS011;5175;42.606;23.388;2023-06-14T06:20:55;18.80;;;16.88;;
10260;SDS011;5175;42.606;23.388;2023-06-14T06:23:22;18.42;;;16.70;;
10260;SDS011;5175;42.606;23.388;2023-06-14T06:25:48;18.38;;;16.67;;
10260;SDS011;5175;42.606;23.388;2023-06-14T06:28:15;18.90;;;17.00;;
10260;SDS011;5175;42.606;23.388;2023-06-14T06:30:42;20.55;;;18.33;;
10260;SDS011;5175;42.606;23.388;2023-06-14T06:33:09;19.35;;;17.55;;
10260;SDS011;5175;42.606;23.388;2023-06-14T06:35:38;19.02;;;17.13;;
10260;SDS011;5175;42.606;23.388;2023-06-14T06:38:05;20.73;;;17.05;;
10260;SDS011;5175;42.606;23.388;2023-06-14T06:40:32;19.63;;;17.60;;
10260;SDS011;5175;42.606;23.388;2023-06-14T06:42:58;19.70;;;17.27;;
10260;SDS011;5175;42.606;23.388;2023-06-14T06:45:25;23.75;;;19.88;;
10260;SDS011;5175;42.606;23.388;2023-06-14T06:47:52;20.48;;;18.23;;
10260;SDS011;5175;42.606;23.388;2023-06-14T06:50:20;19.30;;;17.23;;
10260;SDS011;5175;42.606;23.388;2023-06-14T06:52:51;21.20;;;17.98;;
10260;SDS011;5175;42.606;23.388;2023-06-14T06:55:20;20.52;;;16.73;;
10260;SDS011;5175;42.606;23.388;2023-06-14T06:57:47;18.92;;;16.92;;
10260;SDS011;5175;42.606;23.388;2023-06-14T07:00:15;18.80;;;16.90;;
10260;SDS011;5175;42.606;23.388;2023-06-14T07:02:42;20.27;;;17.40;;
10260;SDS011;5175;42.606;23.388;2023-06-14T07:05:09;21.10;;;17.77;;
10260;SDS011;5175;42.606;23.388;2023-06-14T07:07:36;18.23;;;16.33;;
10260;SDS011;5175;42.606;23.388;2023-06-14T07:10:05;17.52;;;15.82;;
10260;SDS011;5175;42.606;23.388;2023-06-14T07:12:32;22.00;;;16.10;;
10260;SDS011;5175;42.606;23.388;2023-06-14T07:15:04;19.58;;;14.85;;
10260;SDS011;5175;42.606;23.388;2023-06-14T07:17:32;15.60;;;14.00;;
10260;SDS011;5175;42.606;23.388;2023-06-14T07:19:59;16.38;;;14.77;;
10260;SDS011;5175;42.606;23.388;2023-06-14T07:22:26;14.85;;;13.25;;
10260;SDS011;5175;42.606;23.388;2023-06-14T07:24:53;15.85;;;13.95;;
10260;SDS011;5175;42.606;23.388;2023-06-14T07:27:21;15.90;;;14.25;;
10260;SDS011;5175;42.606;23.388;2023-06-14T07:29:48;20.02;;;14.48;;
10260;SDS011;5175;42.606;23.388;2023-06-14T07:32:15;15.32;;;13.80;;
10260;SDS011;5175;42.606;23.388;2023-06-14T07:34:41;18.33;;;14.95;;
10260;SDS011;5175;42.606;23.388;2023-06-14T07:37:08;16.88;;;15.27;;
10260;SDS011;5175;42.606;23.388;2023-06-14T07:39:35;16.35;;;13.52;;
10260;SDS011;5175;42.606;23.388;2023-06-14T07:42:02;12.88;;;11.77;;
10260;SDS011;5175;42.606;23.388;2023-06-14T07:44:30;12.82;;;11.73;;
10260;SDS011;5175;42.606;23.388;2023-06-14T07:46:57;12.52;;;11.38;;
10260;SDS011;5175;42.606;23.388;2023-06-14T07:49:25;13.38;;;12.13;;
10260;SDS011;5175;42.606;23.388;2023-06-14T07:51:51;14.38;;;13.07;;
10260;SDS011;5175;42.606;23.388;2023-06-14T07:54:18;13.68;;;12.48;;
10260;SDS011;5175;42.606;23.388;2023-06-14T07:56:49;15.90;;;13.77;;
10260;SDS011;5175;42.606;23.388;2023-06-14T07:59:16;14.52;;;13.20;;
10260;SDS011;5175;42.606;23.388;2023-06-14T08:01:44;12.80;;;11.70;;
10260;SDS011;5175;42.606;23.388;2023-06-14T08:04:12;13.75;;;12.32;;
10260;SDS011;5175;42.606;23.388;2023-06-14T08:06:39;12.10;;;10.90;;
10260;SDS011;5175;42.606;23.388;2023-06-14T08:09:09;13.48;;;12.38;;
10260;SDS011;5175;42.606;23.388;2023-06-14T08:11:36;13.50;;;12.20;;
10260;SDS011;5175;42.606;23.388;2023-06-14T08:14:02;13.50;;;12.18;;
10260;SDS011;5175;42.606;23.388;2023-06-14T08:16:29;14.70;;;13.40;;
10260;SDS011;5175;42.606;23.388;2023-06-14T08:18:57;16.70;;;12.60;;
10260;SDS011;5175;42.606;23.388;2023-06-14T08:21:24;14.18;;;12.77;;
10260;SDS011;5175;42.606;23.388;2023-06-14T08:23:54;14.38;;;12.85;;
10260;SDS011;5175;42.606;23.388;2023-06-14T08:26:21;16.67;;;14.55;;
10260;SDS011;5175;42.606;23.388;2023-06-14T08:28:48;21.90;;;14.38;;
10260;SDS011;5175;42.606;23.388;2023-06-14T08:31:14;14.20;;;12.80;;
10260;SDS011;5175;42.606;23.388;2023-06-14T08:33:41;14.18;;;12.77;;
10260;SDS011;5175;42.606;23.388;2023-06-14T08:36:10;13.38;;;12.13;;
10260;SDS011;5175;42.606;23.388;2023-06-14T08:38:37;13.70;;;12.27;;
10260;SDS011;5175;42.606;23.388;2023-06-14T08:41:04;15.15;;;13.15;;
10260;SDS011;5175;42.606;23.388;2023-06-14T08:43:32;13.63;;;12.32;;
10260;SDS011;5175;42.606;23.388;2023-06-14T08:46:00;15.77;;;13.48;;
10260;SDS011;5175;42.606;23.388;2023-06-14T08:48:29;13.60;;;12.27;;
10260;SDS011;5175;42.606;23.388;2023-06-14T08:50:59;13.10;;;11.90;;
10260;SDS011;5175;42.606;23.388;2023-06-14T08:53:30;13.88;;;12.63;;
10260;SDS011;5175;42.606;23.388;2023-06-14T08:55:59;13.32;;;12.05;;
10260;SDS011;5175;42.606;23.388;2023-06-14T08:58:28;13.73;;;12.32;;
10260;SDS011;5175;42.606;23.388;2023-06-14T09:00:56;14.45;;;13.05;;
10260;SDS011;5175;42.606;23.388;2023-06-14T09:03:23;13.95;;;12.68;;
10260;SDS011;5175;42.606;23.388;2023-06-14T09:05:55;12.90;;;11.60;;
10260;SDS011;5175;42.606;23.388;2023-06-14T09:08:24;12.90;;;11.75;;
10260;SDS011;5175;42.606;23.388;2023-06-14T09:10:52;13.55;;;12.23;;
10260;SDS011;5175;42.606;23.388;2023-06-14T09:13:20;14.23;;;12.88;;
10260;SDS011;5175;42.606;23.388;2023-06-14T09:15:46;13.57;;;12.32;;
10260;SDS011;5175;42.606;23.388;2023-06-14T09:18:13;13.88;;;12.60;;
10260;SDS011;5175;42.606;23.388;2023-06-14T09:20:40;13.50;;;12.25;;
10260;SDS011;5175;42.606;23.388;2023-06-14T09:23:07;13.27;;;12.10;;
10260;SDS011;5175;42.606;23.388;2023-06-14T09:25:41;13.90;;;12.50;;
10260;SDS011;5175;42.606;23.388;2023-06-14T09:28:11;13.85;;;12.55;;
10260;SDS011;5175;42.606;23.388;2023-06-14T09:30:37;13.18;;;12.07;;
10260;SDS011;5175;42.606;23.388;2023-06-14T09:33:04;13.43;;;12.13;;
10260;SDS011;5175;42.606;23.388;2023-06-14T09:35:31;12.93;;;11.82;;
10260;SDS011;5175;42.606;23.388;2023-06-14T09:37:58;13.75;;;12.50;;
10260;SDS011;5175;42.606;23.388;2023-06-14T09:40:26;14.05;;;12.65;;
10260;SDS011;5175;42.606;23.388;2023-06-14T09:42:53;13.57;;;12.38;;
10260;SDS011;5175;42.606;23.388;2023-06-14T09:45:24;13.23;;;11.93;;
10260;SDS011;5175;42.606;23.388;2023-06-14T09:47:54;12.90;;;11.68;;
10260;SDS011;5175;42.606;23.388;2023-06-14T09:50:22;13.43;;;12.13;;
10260;SDS011;5175;42.606;23.388;2023-06-14T09:52:48;14.02;;;12.70;;
10260;SDS011;5175;42.606;23.388;2023-06-14T09:55:18;14.38;;;12.70;;
10260;SDS011;5175;42.606;23.388;2023-06-14T09:57:45;12.68;;;11.38;;
10260;SDS011;5175;42.606;23.388;2023-06-14T10:00:15;12.60;;;11.50;;
10260;SDS011;5175;42.606;23.388;2023-06-14T10:02:47;13.20;;;12.10;;
10260;SDS011;5175;42.606;23.388;2023-06-14T10:05:21;12.55;;;11.50;;
10260;SDS011;5175;42.606;23.388;2023-06-14T10:07:51;12.45;;;11.13;;
10260;SDS011;5175;42.606;23.388;2023-06-14T10:10:21;11.68;;;10.68;;
10260;SDS011;5175;42.606;23.388;2023-06-14T10:12:48;12.68;;;11.50;;
10260;SDS011;5175;42.606;23.388;2023-06-14T10:15:17;12.45;;;11.25;;
10260;SDS011;5175;42.606;23.388;2023-06-14T10:17:52;13.73;;;11.75;;
10260;SDS011;5175;42.606;23.388;2023-06-14T10:20:26;12.05;;;11.02;;
10260;SDS011;5175;42.606;23.388;2023-06-14T10:23:01;12.77;;;11.48;;
10260;SDS011;5175;42.606;23.388;2023-06-14T10:25:34;12.05;;;10.95;;
10260;SDS011;5175;42.606;23.388;2023-06-14T10:28:16;12.27;;;11.27;;
10260;SDS011;5175;42.606;23.388;2023-06-14T10:31:03;11.77;;;10.68;;
10260;SDS011;5175;42.606;23.388;2023-06-14T10:33:34;10.27;;;9.48;;
10260;SDS011;5175;42.606;23.388;2023-06-14T10:36:09;10.80;;;9.77;;
10260;SDS011;5175;42.606;23.388;2023-06-14T10:38:37;9.85;;;9.05;;
10260;SDS011;5175;42.606;23.388;2023-06-14T10:41:04;11.55;;;10.40;;
10260;SDS011;5175;42.606;23.388;2023-06-14T10:43:32;11.35;;;10.30;;
10260;SDS011;5175;42.606;23.388;2023-06-14T10:46:13;10.15;;;9.25;;
10260;SDS011;5175;42.606;23.388;2023-06-14T10:48:43;9.50;;;8.60;;
10260;SDS011;5175;42.606;23.388;2023-06-14T10:51:17;9.30;;;8.43;;
10260;SDS011;5175;42.606;23.388;2023-06-14T10:53:47;9.32;;;8.52;;
10260;SDS011;5175;42.606;23.388;2023-06-14T10:56:27;9.68;;;8.88;;
10260;SDS011;5175;42.606;23.388;2023-06-14T10:58:56;8.82;;;8.02;;
10260;SDS011;5175;42.606;23.388;2023-06-14T11:01:28;8.45;;;7.75;;
10260;SDS011;5175;42.606;23.388;2023-06-14T11:04:12;8.45;;;7.72;;
10260;SDS011;5175;42.606;23.388;2023-06-14T11:06:46;8.60;;;7.90;;
10260;SDS011;5175;42.606;23.388;2023-06-14T11:09:24;9.07;;;8.27;;
10260;SDS011;5175;42.606;23.388;2023-06-14T11:12:13;8.52;;;7.85;;
10260;SDS011;5175;42.606;23.388;2023-06-14T11:14:45;8.25;;;7.55;;
10260;SDS011;5175;42.606;23.388;2023-06-14T11:17:12;7.38;;;6.78;;
10260;SDS011;5175;42.606;23.388;2023-06-14T11:19:41;8.13;;;7.07;;
10260;SDS011;5175;42.606;23.388;2023-06-14T11:22:08;7.13;;;6.63;;
10260;SDS011;5175;42.606;23.388;2023-06-14T11:24:34;7.05;;;6.45;;
10260;SDS011;5175;42.606;23.388;2023-06-14T11:27:01;7.25;;;6.65;;
10260;SDS011;5175;42.606;23.388;2023-06-14T11:29:29;6.70;;;6.20;;
10260;SDS011;5175;42.606;23.388;2023-06-14T11:31:57;7.50;;;6.38;;
10260;SDS011;5175;42.606;23.388;2023-06-14T11:34:24;7.00;;;6.35;;
10260;SDS011;5175;42.606;23.388;2023-06-14T11:36:52;7.38;;;6.72;;
10260;SDS011;5175;42.606;23.388;2023-06-14T11:39:23;7.30;;;6.70;;
10260;SDS011;5175;42.606;23.388;2023-06-14T11:41:51;11.60;;;8.45;;
10260;SDS011;5175;42.606;23.388;2023-06-14T11:44:18;7.28;;;6.70;;
10260;SDS011;5175;42.606;23.388;2023-06-14T11:46:44;7.15;;;6.60;;
10260;SDS011;5175;42.606;23.388;2023-06-14T11:49:11;7.38;;;6.75;;
10260;SDS011;5175;42.606;23.388;2023-06-14T11:51:38;6.97;;;6.32;;
10260;SDS011;5175;42.606;23.388;2023-06-14T11:54:06;7.28;;;6.55;;
10260;SDS011;5175;42.606;23.388;2023-06-14T11:56:34;7.00;;;6.30;;
10260;SDS011;5175;42.606;23.388;2023-06-14T11:59:02;7.30;;;6.60;;
10260;SDS011;5175;42.606;23.388;2023-06-14T12:01:30;7.10;;;6.50;;
10260;SDS011;5175;42.606;23.388;2023-06-14T12:03:58;7.60;;;6.90;;
10260;SDS011;5175;42.606;23.388;2023-06-14T12:06:26;7.18;;;6.53;;
10260;SDS011;5175;42.606;23.388;2023-06-14T12:08:58;6.32;;;5.70;;
10260;SDS011;5175;42.606;23.388;2023-06-14T12:11:31;7.20;;;6.50;;
10260;SDS011;5175;42.606;23.388;2023-06-14T12:13:59;6.65;;;6.05;;
10260;SDS011;5175;42.606;23.388;2023-06-14T12:16:30;6.82;;;6.20;;
10260;SDS011;5175;42.606;23.388;2023-06-14T12:19:00;7.10;;;6.50;;
10260;SDS011;5175;42.606;23.388;2023-06-14T12:21:27;7.00;;;6.50;;
10260;SDS011;5175;42.606;23.388;2023-06-14T12:23:54;6.65;;;6.05;;
10260;SDS011;5175;42.606;23.388;2023-06-14T12:26:21;6.53;;;6.03;;
10260;SDS011;5175;42.606;23.388;2023-06-14T12:28:53;6.80;;;6.30;;
10260;SDS011;5175;42.606;23.388;2023-06-14T12:31:20;6.38;;;5.88;;
10260;SDS011;5175;42.606;23.388;2023-06-14T12:33:48;6.03;;;5.43;;
10260;SDS011;5175;42.606;23.388;2023-06-14T12:36:15;6.68;;;6.07;;
10260;SDS011;5175;42.606;23.388;2023-06-14T12:38:42;6.35;;;5.85;;
10260;SDS011;5175;42.606;23.388;2023-06-14T12:41:10;6.47;;;5.88;;
10260;SDS011;5175;42.606;23.388;2023-06-14T12:43:38;6.60;;;5.95;;
10260;SDS011;5175;42.606;23.388;2023-06-14T12:46:07;7.55;;;6.55;;
10260;SDS011;5175;42.606;23.388;2023-06-14T12:48:33;7.55;;;6.93;;
10260;SDS011;5175;42.606;23.388;2023-06-14T12:51:00;8.93;;;8.10;;
10260;SDS011;5175;42.606;23.388;2023-06-14T12:53:27;8.50;;;7.70;;
10260;SDS011;5175;42.606;23.388;2023-06-14T12:55:54;8.45;;;7.75;;
10260;SDS011;5175;42.606;23.388;2023-06-14T12:58:21;9.30;;;8.40;;
10260;SDS011;5175;42.606;23.388;2023-06-14T13:00:48;8.90;;;8.10;;
10260;SDS011;5175;42.606;23.388;2023-06-14T13:05:59;10.20;;;9.13;;
10260;SDS011;5175;42.606;23.388;2023-06-14T13:08:26;9.23;;;8.43;;
10260;SDS011;5175;42.606;23.388;2023-06-14T13:10:53;8.95;;;8.15;;
10260;SDS011;5175;42.606;23.388;2023-06-14T13:13:19;9.68;;;8.38;;
10260;SDS011;5175;42.606;23.388;2023-06-14T13:15:47;9.50;;;8.63;;
10260;SDS011;5175;42.606;23.388;2023-06-14T13:18:15;10.00;;;8.55;;
10260;SDS011;5175;42.606;23.388;2023-06-14T13:20:53;12.93;;;9.48;;
10260;SDS011;5175;42.606;23.388;2023-06-14T13:23:21;9.70;;;8.90;;
10260;SDS011;5175;42.606;23.388;2023-06-14T13:25:48;9.65;;;8.85;;
10260;SDS011;5175;42.606;23.388;2023-06-14T13:28:16;11.85;;;10.23;;
10260;SDS011;5175;42.606;23.388;2023-06-14T13:30:43;13.82;;;9.68;;
10260;SDS011;5175;42.606;23.388;2023-06-14T13:33:10;10.60;;;9.55;;
10260;SDS011;5175;42.606;23.388;2023-06-14T13:35:36;10.70;;;9.60;;
10260;SDS011;5175;42.606;23.388;2023-06-14T13:38:03;9.18;;;8.07;;
10260;SDS011;5175;42.606;23.388;2023-06-14T13:40:32;13.90;;;8.70;;
10260;SDS011;5175;42.606;23.388;2023-06-14T13:43:00;8.68;;;7.88;;
10260;SDS011;5175;42.606;23.388;2023-06-14T13:45:27;12.57;;;8.18;;
10260;SDS011;5175;42.606;23.388;2023-06-14T13:47:55;8.45;;;7.65;;
10260;SDS011;5175;42.606;23.388;2023-06-14T13:50:21;8.93;;;8.02;;
10260;SDS011;5175;42.606;23.388;2023-06-14T13:52:49;8.80;;;7.80;;
10260;SDS011;5175;42.606;23.388;2023-06-14T13:55:15;8.30;;;7.38;;
10260;SDS011;5175;42.606;23.388;2023-06-14T13:57:45;7.97;;;7.18;;
10260;SDS011;5175;42.606;23.388;2023-06-14T14:00:12;7.72;;;7.03;;
10260;SDS011;5175;42.606;23.388;2023-06-14T14:02:43;9.80;;;7.20;;
10260;SDS011;5175;42.606;23.388;2023-06-14T14:05:10;9.93;;;8.98;;
10260;SDS011;5175;42.606;23.388;2023-06-14T14:07:37;8.30;;;7.50;;
10260;SDS011;5175;42.606;23.388;2023-06-14T14:10:05;13.82;;;10.38;;
10260;SDS011;5175;42.606;23.388;2023-06-14T14:12:32;12.13;;;10.23;;
10260;SDS011;5175;42.606;23.388;2023-06-14T14:15:01;11.63;;;9.95;;
10260;SDS011;5175;42.606;23.388;2023-06-14T14:17:29;9.65;;;7.50;;
10260;SDS011;5175;42.606;23.388;2023-06-14T14:19:55;10.23;;;9.13;;
10260;SDS011;5175;42.606;23.388;2023-06-14T14:22:23;10.57;;;8.32;;
10260;SDS011;5175;42.606;23.388;2023-06-14T14:24:50;9.88;;;8.27;;
10260;SDS011;5175;42.606;23.388;2023-06-14T14:27:17;8.05;;;7.35;;
10260;SDS011;5175;42.606;23.388;2023-06-14T14:29:44;10.00;;;7.65;;
10260;SDS011;5175;42.606;23.388;2023-06-14T14:32:12;9.30;;;8.48;;
10260;SDS011;5175;42.606;23.388;2023-06-14T14:34:40;9.50;;;8.50;;
10260;SDS011;5175;42.606;23.388;2023-06-14T14:37:07;9.20;;;8.30;;
10260;SDS011;5175;42.606;23.388;2023-06-14T14:39:34;9.10;;;8.30;;
10260;SDS011;5175;42.606;23.388;2023-06-14T14:42:01;9.25;;;8.45;;
10260;SDS011;5175;42.606;23.388;2023-06-14T14:44:28;10.43;;;9.35;;
10260;SDS011;5175;42.606;23.388;2023-06-14T14:46:55;9.38;;;8.45;;
10260;SDS011;5175;42.606;23.388;2023-06-14T14:49:24;9.55;;;7.78;;
10260;SDS011;5175;42.606;23.388;2023-06-14T14:51:51;8.63;;;7.82;;
10260;SDS011;5175;42.606;23.388;2023-06-14T14:54:17;7.95;;;7.25;;
10260;SDS011;5175;42.606;23.388;2023-06-14T14:56:44;8.77;;;7.97;;
10260;SDS011;5175;42.606;23.388;2023-06-14T14:59:11;9.07;;;8.25;;